Flugplatz Ochsenfurt (EDGJ)

Hier findest Du alle Informationen zum Flugplatz Ochsenfurt (EDGJ).

Informationen für Piloten zum Flugplatz Ochsenfurt

Hier findest Du alle relevanten Informationen, die Du als Pilot benötigst, um Ochsenfurt anzufliegen.

Flugplatz: Ochsenfurt ICAO-Code: EDGJ
Frequenz Turm: 123,000 Mhz GAFOR Gebiet: 54
Frequenz Ground: 123,000 Mhz Mogas: nein
Platzrunde: N 1600 ft Landegebühr: -
Platzhöhe: - Sunrise: 07:01 Uhr UTC
Pisten: 10/28 - 512 m x 20 m, GRAS Sunset: 15:21 Uhr UTC

Mitglieder, die in Ochsenfurt fliegen

Flugwetter am Flugplatz Ochsenfurt

Die METAR Information stammen aus EDDN (75.15 km entfernt).

METAR Code:
2021/11/22 22:50
EDDN 222250Z VRB01KT CAVOK M02/M02 Q1027

Temperatur: 2,6 °C Niederschlag: - Wind: 2,1 kt (max.: 2,8 kt in Böen)
Temperatur (min.): 0,7 °C Luftdruck: 1001 hPa Windrichtung: 48 °
Temperatur (max.): 4,3 °C Luftfeuchtigkeit: 98 % Bewölkung: 8/8

Flugschulen am Flugplatz Ochsenfurt

Am Flugplatz Ochsenfurt gibt es leider keine Flugschule.

Benachbarte Flugplätze und Flugschulen

Es gibt 22 weitere Flugplätze in einem Umkreis von 50 km um den Flugplatz Ochsenfurt.

Jetzt anmelden

Passwort vergessen

Umfrage Archiv

Welche Navigations-App nutzt Ihr im Cockpit

SkyDemon
49.2 %
VFRnav
20.7 %
Ich nutze eine andere App
19.2 %
EasyVFR
5.7 %
Ich nutze gar keine App
4.7 %
ForeFlight
0.5 %
Stimmen: 193 | Diskussion (45)
Anzeige: Roland Aircraft
Statistik Alle Mitglieder

Aktuell sind 19 Besucher online.

Anzeige: Pocket FMS